createdAt,value
2023-11-07T12:31:48.468Z,26.13
2023-11-07T12:34:32.990Z,25.79
2023-11-07T12:37:16.359Z,25.54
2023-11-07T12:39:47.668Z,25.44
2023-11-07T12:42:19.755Z,25.31
2023-11-07T12:44:52.397Z,25.18
2023-11-07T12:47:23.275Z,25.06
2023-11-07T12:49:55.965Z,24.82
2023-11-07T12:52:25.461Z,24.73
2023-11-07T12:54:54.936Z,24.55
2023-11-07T12:57:51.600Z,24.49
2023-11-07T13:00:29.867Z,24.37
2023-11-07T13:03:01.323Z,24.50
2023-11-07T13:05:30.902Z,24.61
2023-11-07T13:08:03.490Z,24.57
2023-11-07T13:10:35.014Z,24.60
2023-11-07T13:13:04.762Z,24.66
2023-11-07T13:15:34.264Z,24.58
2023-11-07T13:18:04.225Z,24.30
2023-11-07T13:20:34.520Z,24.12
2023-11-07T13:23:05.963Z,23.99
2023-11-07T13:25:37.803Z,23.79
2023-11-07T13:28:07.498Z,23.67
2023-11-07T13:30:37.206Z,23.56
2023-11-07T13:33:06.948Z,23.53
2023-11-07T13:35:38.862Z,23.49
2023-11-07T13:38:09.192Z,23.37
2023-11-07T13:40:39.812Z,23.30
2023-11-07T13:43:09.719Z,23.29
2023-11-07T13:45:40.721Z,23.23
2023-11-07T13:48:12.911Z,23.23
2023-11-07T13:50:48.041Z,23.23
2023-11-07T13:53:17.472Z,23.19
2023-11-07T13:55:47.130Z,23.13
2023-11-07T13:58:18.746Z,23.04
2023-11-07T14:00:49.057Z,22.93
2023-11-07T14:03:26.364Z,22.82
2023-11-07T14:06:01.047Z,22.75
2023-11-07T14:08:31.531Z,22.66
2023-11-07T14:11:01.693Z,22.59
2023-11-07T14:13:32.095Z,22.54
2023-11-07T14:16:05.335Z,22.50
2023-11-07T14:18:38.700Z,22.42
2023-11-07T14:21:08.214Z,22.33
2023-11-07T14:23:37.990Z,22.25
2023-11-07T14:26:08.236Z,22.19
2023-11-07T14:28:46.832Z,22.12
2023-11-07T14:31:26.707Z,22.03
2023-11-07T14:34:01.404Z,21.94
2023-11-07T14:36:36.950Z,21.83
2023-11-07T14:39:14.051Z,21.75
2023-11-07T14:41:46.535Z,21.65
2023-11-07T14:44:16.174Z,21.55
2023-11-07T14:47:01.981Z,21.44
2023-11-07T14:49:32.234Z,21.34
2023-11-07T14:52:10.287Z,21.24
2023-11-07T14:54:39.699Z,21.13
2023-11-07T14:57:09.806Z,21.03
2023-11-07T14:59:39.415Z,20.93
2023-11-07T15:02:18.057Z,20.82
2023-11-07T15:04:53.132Z,20.69
2023-11-07T15:07:25.337Z,20.57
2023-11-07T15:09:55.195Z,20.45
2023-11-07T15:12:28.128Z,20.32
2023-11-07T15:14:59.908Z,20.14
2023-11-07T15:17:31.585Z,20.05
2023-11-07T15:20:08.316Z,19.98
2023-11-07T15:22:45.566Z,19.86
2023-11-07T15:25:17.472Z,19.76
2023-11-07T15:27:50.382Z,19.67
2023-11-07T15:30:22.126Z,19.61
2023-11-07T15:32:53.399Z,19.54
2023-11-07T15:35:23.767Z,19.49
2023-11-07T15:37:54.872Z,19.45
2023-11-07T15:40:25.312Z,19.41
2023-11-07T15:42:55.463Z,19.35
2023-11-07T15:45:27.028Z,19.32
2023-11-07T15:48:05.789Z,19.28
2023-11-07T15:50:36.118Z,19.25
2023-11-07T15:53:08.739Z,19.23
2023-11-07T15:55:44.620Z,19.20
2023-11-07T15:58:14.458Z,19.16
2023-11-07T16:00:44.535Z,19.12
2023-11-07T16:03:17.139Z,19.09
2023-11-07T16:05:47.473Z,19.06
2023-11-07T16:08:18.768Z,19.04
2023-11-07T16:10:48.379Z,19.02
2023-11-07T16:13:22.202Z,18.99
2023-11-07T16:15:54.381Z,18.95
2023-11-07T16:18:30.513Z,18.92
2023-11-07T16:21:02.743Z,18.86
2023-11-07T16:23:33.467Z,18.84
2023-11-07T16:26:04.597Z,18.84
2023-11-07T16:28:38.606Z,18.80
2023-11-07T16:31:12.855Z,18.75
2023-11-07T16:33:51.346Z,18.71
2023-11-07T16:36:24.334Z,18.67
2023-11-07T16:38:59.369Z,18.61
2023-11-07T16:41:28.992Z,18.57
2023-11-07T16:43:59.585Z,18.52
2023-11-07T16:46:29.406Z,18.48
2023-11-07T16:49:02.601Z,18.46
2023-11-07T16:51:33.711Z,18.41
2023-11-07T16:54:03.703Z,18.38
2023-11-07T16:56:33.836Z,18.35
2023-11-07T16:59:05.502Z,18.32
2023-11-07T17:01:35.737Z,18.27
2023-11-07T17:04:06.944Z,18.22
2023-11-07T17:06:36.687Z,18.15
2023-11-07T17:09:07.790Z,18.11
2023-11-07T17:11:37.377Z,18.05
2023-11-07T17:14:09.610Z,18.00
2023-11-07T17:16:40.447Z,17.95
2023-11-07T17:19:10.092Z,17.91
2023-11-07T17:21:43.507Z,17.84
2023-11-07T17:24:17.287Z,17.79
2023-11-07T17:26:46.918Z,17.74
2023-11-07T17:29:16.415Z,17.70
2023-11-07T17:31:46.340Z,17.66
2023-11-07T17:34:20.327Z,17.62
2023-11-07T17:36:52.090Z,17.60
2023-11-07T17:39:23.291Z,17.55
2023-11-07T17:41:53.437Z,17.49
2023-11-07T17:44:26.665Z,17.43
2023-11-07T17:46:57.027Z,17.38
2023-11-07T17:49:32.828Z,17.32
2023-11-07T17:52:03.389Z,17.25
2023-11-07T17:54:35.164Z,17.21
2023-11-07T17:57:08.446Z,17.14
2023-11-07T17:59:40.002Z,17.08
2023-11-07T18:02:15.767Z,17.05
2023-11-07T18:04:45.117Z,17.01
2023-11-07T18:07:15.819Z,16.98
2023-11-07T18:09:52.805Z,16.96
2023-11-07T18:12:23.590Z,16.96
2023-11-07T18:14:56.236Z,16.94
2023-11-07T18:17:27.104Z,16.93
2023-11-07T18:19:58.269Z,16.89
2023-11-07T18:22:29.951Z,16.87
2023-11-07T18:25:06.957Z,16.85
2023-11-07T18:27:37.693Z,16.85
2023-11-07T18:30:10.060Z,16.84
2023-11-07T18:32:40.240Z,16.80
2023-11-07T18:35:10.740Z,16.79
2023-11-07T18:37:40.532Z,16.78
2023-11-07T18:40:14.214Z,16.75
2023-11-07T18:42:44.055Z,16.73
2023-11-07T18:45:16.236Z,16.71
2023-11-07T18:47:49.557Z,16.67
2023-11-07T18:50:19.402Z,16.63
2023-11-07T18:52:53.334Z,16.60
2023-11-07T18:55:27.229Z,16.57
2023-11-07T18:58:01.757Z,16.54
2023-11-07T19:00:38.521Z,16.52
2023-11-07T19:03:10.257Z,16.49
2023-11-07T19:05:40.054Z,16.46
2023-11-07T19:08:10.190Z,16.42
2023-11-07T19:10:42.875Z,16.38
2023-11-07T19:13:12.859Z,16.37
2023-11-07T19:15:42.395Z,16.34
2023-11-07T19:18:18.533Z,16.32
2023-11-07T19:20:52.676Z,16.28
2023-11-07T19:23:23.841Z,16.27
2023-11-07T19:25:53.529Z,16.26
2023-11-07T19:28:25.336Z,16.25
2023-11-07T19:31:01.568Z,16.25
2023-11-07T19:33:31.130Z,16.23
2023-11-07T19:36:05.799Z,16.22
2023-11-07T19:38:36.132Z,16.21
2023-11-07T19:41:12.537Z,16.20
2023-11-07T19:43:44.571Z,16.17
2023-11-07T19:46:19.630Z,16.14
2023-11-07T19:48:53.674Z,16.12
2023-11-07T19:51:23.362Z,16.09
2023-11-07T19:53:55.802Z,16.08
2023-11-07T19:56:29.888Z,16.07
2023-11-07T19:59:01.100Z,16.07
2023-11-07T20:01:33.889Z,16.04
2023-11-07T20:04:04.893Z,16.04
2023-11-07T20:06:34.549Z,16.03
2023-11-07T20:09:06.480Z,16.00
2023-11-07T20:11:39.038Z,16.00
2023-11-07T20:14:11.170Z,15.98
2023-11-07T20:16:42.231Z,15.96
2023-11-07T20:19:15.483Z,15.94
2023-11-07T20:21:46.394Z,15.92
2023-11-07T20:24:16.769Z,15.90
2023-11-07T20:26:49.574Z,15.88
2023-11-07T20:29:23.456Z,15.88
2023-11-07T20:31:53.520Z,15.86
2023-11-07T20:34:23.917Z,15.86
2023-11-07T20:36:53.462Z,15.86
2023-11-07T20:39:25.984Z,15.85
2023-11-07T20:41:57.062Z,15.83
2023-11-07T20:44:32.264Z,15.81
2023-11-07T20:47:13.936Z,15.80
2023-11-07T20:49:49.895Z,15.79
2023-11-07T20:52:25.438Z,15.80
2023-11-07T20:55:00.884Z,15.81
2023-11-07T20:57:33.229Z,15.82
2023-11-07T21:00:03.110Z,15.82
2023-11-07T21:02:36.536Z,15.83
2023-11-07T21:05:15.716Z,15.81
2023-11-07T21:07:46.425Z,15.79
2023-11-07T21:10:16.896Z,15.76
2023-11-07T21:12:46.750Z,15.74
2023-11-07T21:15:16.517Z,15.70
2023-11-07T21:17:48.237Z,15.66
2023-11-07T21:20:22.001Z,15.62
2023-11-07T21:22:53.025Z,15.56
2023-11-07T21:25:24.589Z,15.50
2023-11-07T21:27:56.903Z,15.46
2023-11-07T21:30:28.757Z,15.44
2023-11-07T21:33:01.684Z,15.42
2023-11-07T21:35:34.501Z,15.42
2023-11-07T21:38:07.422Z,15.41
2023-11-07T21:40:41.147Z,15.40
2023-11-07T21:43:14.298Z,15.39
2023-11-07T21:45:44.338Z,15.38
2023-11-07T21:48:17.391Z,15.36
2023-11-07T21:50:49.947Z,15.32
2023-11-07T21:53:21.491Z,15.29
2023-11-07T21:56:00.959Z,15.25
2023-11-07T21:58:32.059Z,15.22
2023-11-07T22:01:02.348Z,15.19
2023-11-07T22:03:31.704Z,15.18
2023-11-07T22:06:01.364Z,15.18
2023-11-07T22:08:31.869Z,15.17
2023-11-07T22:11:01.380Z,15.17
2023-11-07T22:13:31.037Z,15.16
2023-11-07T22:16:01.987Z,15.13
2023-11-07T22:18:31.882Z,15.11
2023-11-07T22:21:01.625Z,15.09
2023-11-07T22:23:31.083Z,15.08
2023-11-07T22:26:01.816Z,15.07
2023-11-07T22:28:31.533Z,15.05
2023-11-07T22:31:01.503Z,15.05
2023-11-07T22:33:32.160Z,15.03
2023-11-07T22:36:02.293Z,15.02
2023-11-07T22:38:31.893Z,15.02
2023-11-07T22:41:03.597Z,15.00
2023-11-07T22:43:35.460Z,14.97
2023-11-07T22:46:05.544Z,14.95
2023-11-07T22:48:37.715Z,14.91
2023-11-07T22:51:07.330Z,14.87
2023-11-07T22:53:37.170Z,14.83
2023-11-07T22:56:07.262Z,14.79
2023-11-07T22:58:39.188Z,14.77
2023-11-07T23:01:10.175Z,14.74
2023-11-07T23:03:39.832Z,14.69
2023-11-07T23:06:09.484Z,14.59
2023-11-07T23:08:39.157Z,14.49
2023-11-07T23:11:10.231Z,14.43
2023-11-07T23:13:39.823Z,14.38
2023-11-07T23:16:10.259Z,14.36
2023-11-07T23:18:42.289Z,14.32
2023-11-07T23:21:13.442Z,14.29
2023-11-07T23:23:42.833Z,14.25
2023-11-07T23:26:13.649Z,14.19
2023-11-07T23:28:43.537Z,14.14
2023-11-07T23:31:13.258Z,14.10
2023-11-07T23:33:42.689Z,14.06
2023-11-07T23:36:12.464Z,14.02
2023-11-07T23:38:42.197Z,13.99
2023-11-07T23:41:13.248Z,13.97
2023-11-07T23:43:43.796Z,13.94
2023-11-07T23:46:15.584Z,13.91
2023-11-07T23:48:45.715Z,13.87
2023-11-07T23:51:17.443Z,13.84
2023-11-07T23:53:49.377Z,13.80
2023-11-07T23:56:20.852Z,13.73
2023-11-07T23:58:50.854Z,13.69
